Time;durP1;ratioP1;P1;durP2;ratioP2;P2;SDS_P1;SDS_P2;PMS_P1;PMS_P2;Temp;Humidity;BMP_temperature;BMP_pressure;BME280_temperature;BME280_humidity;BME280_pressure;Samples;Min_cycle;Max_cycle;Signal;HPM_P1;HPM_P2
2022/04/22 00:00:48;;;;;;;39.60;25.33;;;10.90;75.20;;;;;;5007924;28;20809;-75
2022/04/22 00:03:16;;;;;;;35.33;24.50;;;10.90;75.30;;;;;;5004316;28;20464;-76
2022/04/22 00:05:45;;;;;;;42.73;27.53;;;10.90;75.30;;;;;;4995378;28;20450;-77
2022/04/22 00:08:22;;;;;;;47.53;30.40;;;10.90;75.40;;;;;;5003289;28;20453;-75
2022/04/22 00:13:36;;;;;;;42.23;25.57;;;10.90;75.30;;;;;;4997221;28;20515;-74
2022/04/22 00:16:05;;;;;;;38.40;26.07;;;10.90;75.40;;;;;;5001605;28;20472;-74
2022/04/22 00:18:34;;;;;;;41.43;26.07;;;10.80;75.40;;;;;;5000055;28;20468;-74
2022/04/22 00:21:02;;;;;;;38.80;24.03;;;10.80;75.40;;;;;;5001618;28;20520;-76
2022/04/22 00:23:31;;;;;;;39.77;26.20;;;10.80;75.40;;;;;;4999358;28;20467;-77
2022/04/22 00:26:00;;;;;;;42.67;26.50;;;10.80;75.40;;;;;;4997566;28;20457;-74
2022/04/22 00:28:29;;;;;;;40.00;26.37;;;10.80;75.50;;;;;;5000752;28;20548;-77
2022/04/22 00:30:57;;;;;;;39.33;24.53;;;10.80;75.40;;;;;;5003546;28;20583;-74
2022/04/22 00:33:25;;;;;;;36.80;24.90;;;10.80;75.60;;;;;;5000425;28;20457;-75
2022/04/22 00:35:53;;;;;;;36.10;25.07;;;10.70;75.70;;;;;;5003083;28;20456;-75
2022/04/22 00:38:21;;;;;;;39.17;25.00;;;10.70;75.60;;;;;;5007300;28;20467;-78
2022/04/22 00:40:49;;;;;;;35.67;25.40;;;10.70;75.60;;;;;;5008032;28;20448;-77
2022/04/22 00:43:21;;;;;;;39.10;25.43;;;10.60;75.70;;;;;;5003815;28;20453;-78
2022/04/22 00:45:49;;;;;;;37.60;24.73;;;10.60;75.80;;;;;;5000981;28;20487;-75
2022/04/22 00:48:18;;;;;;;37.10;25.50;;;10.60;76.00;;;;;;5003479;28;20480;-77
2022/04/22 00:50:47;;;;;;;38.13;26.70;;;10.60;75.80;;;;;;5009614;28;20993;-76
2022/04/22 00:53:16;;;;;;;39.20;25.40;;;10.60;75.80;;;;;;5006514;28;20453;-74
2022/04/22 00:55:45;;;;;;;36.23;24.67;;;10.60;75.90;;;;;;5001660;28;20454;-75
2022/04/22 00:58:14;;;;;;;38.27;25.83;;;10.60;76.00;;;;;;5003054;28;20456;-74
2022/04/22 01:00:44;;;;;;;36.30;24.80;;;10.50;75.80;;;;;;4998734;28;20477;-75
2022/04/22 01:03:12;;;;;;;39.90;24.83;;;10.50;76.00;;;;;;5013265;28;20496;-75
2022/04/22 01:11:12;;;;;;;41.03;26.60;;;10.50;75.90;;;;;;5004413;28;20473;-75
2022/04/22 01:13:40;;;;;;;41.30;26.70;;;10.40;76.00;;;;;;5002483;28;20531;-75
2022/04/22 01:16:09;;;;;;;38.50;25.67;;;10.40;76.30;;;;;;5002219;28;20505;-75
2022/04/22 01:18:38;;;;;;;38.67;25.50;;;10.40;76.30;;;;;;5001377;28;20519;-75
2022/04/22 01:21:07;;;;;;;38.70;24.73;;;10.40;76.30;;;;;;5001076;28;20489;-74
2022/04/22 01:23:36;;;;;;;35.90;24.47;;;10.40;76.30;;;;;;4997230;28;20956;-75
2022/04/22 01:26:04;;;;;;;37.20;25.03;;;10.50;76.30;;;;;;5002949;28;20448;-75
2022/04/22 01:28:32;;;;;;;41.87;26.00;;;10.50;76.30;;;;;;5001219;28;20961;-75
2022/04/22 01:31:00;;;;;;;40.93;25.60;;;10.50;76.30;;;;;;5001814;28;20486;-76
2022/04/22 01:33:29;;;;;;;36.57;24.83;;;10.50;76.10;;;;;;5001666;28;20459;-74
2022/04/22 01:35:58;;;;;;;37.90;25.93;;;10.60;76.10;;;;;;5000806;28;21013;-76
2022/04/22 01:38:27;;;;;;;38.47;25.43;;;10.60;76.20;;;;;;5008254;28;20456;-77
2022/04/22 01:41:42;;;;;;;38.77;26.27;;;10.60;76.00;;;;;;5001594;28;20848;-78
2022/04/22 01:44:10;;;;;;;36.47;24.13;;;10.60;76.00;;;;;;4994764;28;20481;-75
2022/04/22 01:46:38;;;;;;;41.37;26.90;;;10.60;76.00;;;;;;4998008;28;20484;-77
2022/04/22 01:49:06;;;;;;;42.17;27.27;;;10.70;76.00;;;;;;5003453;28;20457;-75
2022/04/22 01:51:35;;;;;;;35.90;24.43;;;10.70;75.90;;;;;;4998898;28;20888;-74
2022/04/22 01:54:05;;;;;;;38.10;26.13;;;10.70;75.90;;;;;;5004290;28;20821;-75
2022/04/22 01:56:33;;;;;;;37.60;24.43;;;10.80;75.90;;;;;;5001258;28;20465;-75
2022/04/22 01:59:00;;;;;;;36.10;25.37;;;10.80;75.60;;;;;;4998976;28;20819;-74
2022/04/22 02:01:29;;;;;;;37.63;24.83;;;10.80;75.50;;;;;;5004076;28;20476;-74
2022/04/22 02:03:57;;;;;;;41.87;26.23;;;10.80;75.30;;;;;;5008574;28;20485;-74
2022/04/22 02:06:25;;;;;;;39.40;25.90;;;10.80;75.20;;;;;;5009806;28;20474;-74
2022/04/22 02:08:53;;;;;;;39.47;24.50;;;10.80;75.10;;;;;;5000732;28;20473;-74
2022/04/22 02:11:22;;;;;;;39.50;24.47;;;10.80;74.90;;;;;;5011622;28;20495;-74
2022/04/22 02:13:50;;;;;;;37.20;23.27;;;10.70;74.90;;;;;;5004643;28;20477;-78
2022/04/22 02:16:18;;;;;;;37.93;24.00;;;10.70;74.70;;;;;;5011605;28;21124;-74
2022/04/22 02:18:47;;;;;;;34.47;23.90;;;10.70;74.60;;;;;;5001796;28;20461;-74
2022/04/22 02:21:15;;;;;;;34.00;24.10;;;10.60;74.50;;;;;;5005304;28;20448;-76
2022/04/22 02:23:43;;;;;;;37.90;25.40;;;10.60;74.50;;;;;;4999229;28;20480;-78
2022/04/22 02:26:11;;;;;;;38.80;24.90;;;10.50;74.50;;;;;;5002545;28;20495;-75
2022/04/22 02:28:39;;;;;;;38.57;24.70;;;10.50;74.50;;;;;;5006981;28;20453;-75
2022/04/22 02:31:09;;;;;;;35.77;24.40;;;10.50;74.40;;;;;;5007733;28;20480;-74
2022/04/22 02:33:38;;;;;;;35.30;23.00;;;10.50;74.40;;;;;;4999452;28;21085;-75
2022/04/22 02:36:07;;;;;;;34.77;23.80;;;10.50;74.30;;;;;;5000113;28;20462;-78
2022/04/22 02:38:36;;;;;;;35.70;23.33;;;10.40;74.30;;;;;;5002405;28;20869;-76
2022/04/22 02:46:36;;;;;;;38.40;23.80;;;10.30;73.90;;;;;;5003839;28;20483;-78
2022/04/22 02:49:04;;;;;;;38.93;24.90;;;10.30;73.90;;;;;;5011075;28;20917;-76
2022/04/22 02:51:32;;;;;;;35.97;23.37;;;10.20;73.90;;;;;;5006011;28;20473;-78
2022/04/22 02:54:00;;;;;;;43.90;26.07;;;10.20;73.80;;;;;;5009274;28;20637;-77
2022/04/22 02:56:30;;;;;;;39.57;25.53;;;10.20;73.70;;;;;;4995197;28;20491;-74
2022/04/22 02:59:00;;;;;;;38.40;24.70;;;10.10;73.70;;;;;;5006933;28;20806;-77
2022/04/22 03:01:28;;;;;;;42.73;27.13;;;10.10;73.70;;;;;;4999975;28;20468;-74
2022/04/22 03:03:56;;;;;;;41.50;28.87;;;10.10;73.80;;;;;;4994219;28;20889;-76
2022/04/22 03:06:26;;;;;;;49.70;30.77;;;10.00;73.60;;;;;;5002435;28;20841;-74
2022/04/22 03:08:54;;;;;;;40.67;27.83;;;10.00;73.50;;;;;;5003183;28;20456;-74
2022/04/22 03:11:23;;;;;;;40.20;25.93;;;9.90;73.50;;;;;;5001244;28;20480;-74
2022/04/22 03:13:51;;;;;;;38.77;25.90;;;9.90;73.60;;;;;;5006427;28;20489;-79
2022/04/22 03:16:24;;;;;;;40.70;27.37;;;9.90;73.50;;;;;;5006546;28;20524;-79
2022/04/22 03:18:52;;;;;;;35.50;24.43;;;9.80;73.50;;;;;;5004028;28;20464;-74
2022/04/22 03:21:20;;;;;;;33.50;23.30;;;9.80;73.50;;;;;;4997202;28;20472;-74
2022/04/22 03:23:48;;;;;;;36.97;24.43;;;9.80;73.60;;;;;;5006151;28;20488;-74
2022/04/22 03:26:16;;;;;;;34.37;22.50;;;9.80;73.50;;;;;;5023231;28;20477;-74
2022/04/22 03:28:44;;;;;;;35.80;22.93;;;9.80;73.40;;;;;;4996338;28;20524;-74
2022/04/22 03:31:12;;;;;;;35.30;24.30;;;9.70;73.30;;;;;;5000318;28;20489;-75
2022/04/22 03:33:41;;;;;;;39.57;25.70;;;9.70;73.30;;;;;;5008331;28;20511;-75
2022/04/22 03:36:09;;;;;;;39.90;23.47;;;9.70;73.40;;;;;;5006927;28;20871;-74
2022/04/22 03:38:37;;;;;;;36.37;23.97;;;9.60;73.30;;;;;;5005205;28;20816;-74
2022/04/22 03:41:05;;;;;;;39.77;26.97;;;9.60;73.20;;;;;;5000128;28;20464;-75
2022/04/22 03:43:33;;;;;;;40.53;26.20;;;9.60;73.20;;;;;;5006349;28;20452;-74
2022/04/22 03:46:01;;;;;;;42.27;27.10;;;9.50;73.20;;;;;;5003750;28;20481;-79
2022/04/22 03:48:29;;;;;;;41.17;26.43;;;9.50;73.20;;;;;;5004739;28;20477;-75
2022/04/22 03:50:58;;;;;;;41.47;26.50;;;9.50;73.30;;;;;;5006016;28;20455;-74
2022/04/22 03:53:26;;;;;;;39.23;26.83;;;9.50;73.30;;;;;;4992940;28;20472;-75
2022/04/22 03:55:54;;;;;;;40.10;25.63;;;9.50;73.30;;;;;;5001839;28;20461;-76
2022/04/22 03:58:21;;;;;;;36.33;24.53;;;9.50;73.30;;;;;;5011391;28;20460;-75
2022/04/22 04:00:51;;;;;;;35.37;23.30;;;9.50;73.30;;;;;;5003525;28;20472;-75
2022/04/22 04:03:20;;;;;;;36.63;25.47;;;9.50;73.30;;;;;;5006771;28;20485;-76
2022/04/22 04:05:51;;;;;;;34.57;24.17;;;9.50;73.30;;;;;;5005059;28;20464;-76
2022/04/22 04:08:22;;;;;;;56.27;34.03;;;9.50;73.30;;;;;;5009986;28;20468;-79
2022/04/22 04:16:24;;;;;;;43.93;27.77;;;9.60;73.50;;;;;;4998689;28;20489;-75
2022/04/22 04:23:14;;;;;;;37.70;25.30;;;9.60;73.40;;;;;;5003772;28;21262;-76
2022/04/22 04:24:27;;;;;;;36.90;23.90;;;9.60;73.30;;;;;;5011986;28;21011;-75
2022/04/22 04:26:55;;;;;;;36.97;24.70;;;9.60;73.20;;;;;;5006624;28;20457;-73
2022/04/22 04:29:23;;;;;;;40.60;26.40;;;9.60;73.10;;;;;;5007766;28;20448;-74
2022/04/22 04:31:51;;;;;;;40.70;26.20;;;9.60;73.10;;;;;;5006723;28;20569;-74
2022/04/22 04:34:19;;;;;;;41.63;27.53;;;9.60;73.10;;;;;;5004754;28;20487;-74
2022/04/22 04:36:47;;;;;;;35.30;24.57;;;9.60;73.10;;;;;;5008075;28;20972;-74
2022/04/22 04:39:14;;;;;;;38.40;25.10;;;9.60;73.10;;;;;;5005237;28;20466;-74
2022/04/22 04:41:44;;;;;;;36.70;24.00;;;9.60;73.10;;;;;;5008958;28;20981;-74
2022/04/22 04:44:12;;;;;;;34.47;23.83;;;9.50;73.00;;;;;;5007436;28;20488;-74
2022/04/22 04:46:40;;;;;;;31.47;22.27;;;9.50;72.90;;;;;;5011662;28;20502;-75
2022/04/22 04:49:08;;;;;;;35.63;25.17;;;9.50;73.00;;;;;;5018591;28;20545;-77
2022/04/22 04:51:36;;;;;;;37.27;24.60;;;9.50;72.90;;;;;;5004750;28;20445;-74
2022/04/22 04:54:04;;;;;;;36.90;24.13;;;9.50;73.00;;;;;;5003733;28;20484;-74
2022/04/22 04:56:32;;;;;;;39.20;24.40;;;9.50;73.30;;;;;;4999255;28;20457;-73
2022/04/22 04:59:01;;;;;;;32.97;22.13;;;9.70;73.90;;;;;;4998443;28;20815;-74
2022/04/22 05:01:29;;;;;;;38.00;24.70;;;10.10;74.30;;;;;;5002921;28;20986;-75
2022/04/22 05:03:57;;;;;;;34.10;23.50;;;10.60;74.10;;;;;;5001649;28;20481;-77
2022/04/22 05:06:25;;;;;;;32.80;21.97;;;11.20;73.40;;;;;;5008605;28;20500;-75
2022/04/22 05:08:53;;;;;;;33.10;22.30;;;11.80;72.60;;;;;;5007624;28;20511;-75
2022/04/22 05:11:20;;;;;;;30.13;21.07;;;12.40;71.70;;;;;;5008159;28;20449;-74
2022/04/22 05:13:49;;;;;;;37.67;23.87;;;12.90;70.90;;;;;;5000097;28;20535;-75
2022/04/22 05:16:18;;;;;;;35.47;23.33;;;13.40;70.20;;;;;;5006721;28;20495;-74
2022/04/22 05:18:46;;;;;;;38.57;25.67;;;13.90;69.40;;;;;;5011133;28;20515;-74
2022/04/22 05:21:14;;;;;;;35.63;22.87;;;14.30;68.80;;;;;;5005907;28;20962;-76
2022/04/22 05:23:42;;;;;;;34.53;23.13;;;14.70;68.60;;;;;;5004101;28;20998;-75
2022/04/22 05:26:10;;;;;;;48.17;27.73;;;15.10;68.10;;;;;;5009349;28;20530;-76
2022/04/22 05:28:38;;;;;;;34.20;22.57;;;15.50;67.90;;;;;;5013967;28;20487;-75
2022/04/22 05:33:53;;;;;;;36.37;23.50;;;16.40;66.40;;;;;;5001884;28;20492;-76
2022/04/22 05:36:21;;;;;;;30.13;20.00;;;17.00;66.00;;;;;;5008365;28;20460;-74
2022/04/22 05:38:49;;;;;;;31.27;20.20;;;17.40;65.20;;;;;;5003841;28;20460;-74
2022/04/22 05:41:22;;;;;;;38.27;25.17;;;17.80;64.60;;;;;;5006735;28;20467;-74
2022/04/22 05:43:50;;;;;;;29.57;19.43;;;18.30;63.40;;;;;;5007147;28;20473;-77
2022/04/22 05:46:18;;;;;;;26.17;16.77;;;18.70;62.60;;;;;;5008808;28;20546;-75
2022/04/22 05:48:46;;;;;;;27.13;20.23;;;19.00;61.50;;;;;;5004948;28;20465;-74
2022/04/22 05:51:15;;;;;;;27.07;18.40;;;18.80;59.40;;;;;;5009224;28;20445;-75
2022/04/22 05:53:47;;;;;;;32.73;23.53;;;17.70;58.40;;;;;;5005953;28;20518;-74
2022/04/22 05:56:15;;;;;;;32.23;22.47;;;16.50;58.60;;;;;;5004619;28;20465;-81
2022/04/22 05:58:43;;;;;;;24.33;18.50;;;15.30;59.60;;;;;;5011211;28;20465;-77
2022/04/22 06:01:11;;;;;;;23.83;17.63;;;14.30;60.40;;;;;;5017852;28;21053;-76
2022/04/22 06:03:39;;;;;;;22.23;16.43;;;13.50;61.50;;;;;;5010587;28;20953;-77
2022/04/22 06:06:07;;;;;;;28.30;19.90;;;12.90;62.40;;;;;;5008146;28;20453;-76
2022/04/22 06:11:22;;;;;;;25.53;18.50;;;12.20;63.80;;;;;;5005666;28;20806;-77
2022/04/22 06:13:50;;;;;;;23.37;16.83;;;11.80;64.60;;;;;;5010518;28;20480;-77
2022/04/22 06:16:19;;;;;;;28.80;18.90;;;11.60;65.00;;;;;;5009728;28;20546;-76
2022/04/22 06:18:47;;;;;;;28.30;17.80;;;11.50;65.30;;;;;;5014828;28;20555;-77
2022/04/22 06:21:15;;;;;;;27.17;18.60;;;11.40;66.00;;;;;;5006751;28;21273;-76
2022/04/22 06:23:44;;;;;;;26.40;18.37;;;11.40;66.30;;;;;;5003660;28;20471;-76
2022/04/22 06:26:12;;;;;;;27.73;19.03;;;11.40;67.00;;;;;;5013384;28;20463;-77
2022/04/22 06:28:40;;;;;;;26.80;17.77;;;11.30;67.00;;;;;;5012237;28;20461;-77
2022/04/22 06:31:08;;;;;;;23.50;18.00;;;11.30;67.30;;;;;;5011184;28;20472;-76
2022/04/22 06:33:38;;;;;;;24.30;17.00;;;11.30;67.60;;;;;;5008127;28;20476;-77
2022/04/22 06:36:12;;;;;;;24.77;16.67;;;11.20;67.70;;;;;;5004707;28;20938;-76
2022/04/22 06:38:43;;;;;;;23.90;17.43;;;11.20;67.90;;;;;;5006808;28;20451;-78
2022/04/22 06:46:47;;;;;;;25.53;16.37;;;11.20;68.70;;;;;;5004903;28;20492;-76
2022/04/22 06:49:15;;;;;;;25.10;17.30;;;11.20;68.90;;;;;;5008815;28;20456;-76
2022/04/22 06:51:44;;;;;;;28.30;17.17;;;11.20;69.00;;;;;;5007753;28;20465;-76
2022/04/22 06:54:12;;;;;;;22.40;16.40;;;11.30;69.20;;;;;;5008690;28;20912;-76
2022/04/22 06:56:42;;;;;;;23.23;16.37;;;11.30;69.30;;;;;;4999280;28;20977;-76
2022/04/22 06:59:11;;;;;;;22.00;14.87;;;11.30;69.30;;;;;;5001047;28;21033;-76
2022/04/22 07:01:39;;;;;;;22.70;15.83;;;11.30;69.60;;;;;;5019767;28;20480;-76
2022/04/22 07:04:12;;;;;;;25.37;16.10;;;11.30;69.70;;;;;;5007109;28;21262;-76
2022/04/22 07:06:41;;;;;;;22.40;16.83;;;11.40;69.60;;;;;;5011408;28;20515;-76
2022/04/22 07:09:24;;;;;;;34.33;24.83;;;11.40;69.70;;;;;;5010427;28;20466;-75
2022/04/22 07:11:56;;;;;;;27.10;16.90;;;11.40;69.80;;;;;;5011011;28;20468;-76
2022/04/22 07:14:25;;;;;;;22.07;16.10;;;11.50;69.90;;;;;;5004844;28;20540;-76
2022/04/22 07:16:53;;;;;;;23.03;16.03;;;11.50;69.80;;;;;;5005591;28;20471;-76
2022/04/22 07:19:22;;;;;;;22.13;16.40;;;11.50;69.80;;;;;;5005751;28;20475;-76
2022/04/22 07:21:50;;;;;;;24.97;17.60;;;11.60;69.70;;;;;;5005652;28;20514;-76
2022/04/22 07:24:18;;;;;;;22.20;15.90;;;11.50;69.80;;;;;;5008824;28;20480;-76
2022/04/22 07:26:46;;;;;;;27.07;18.97;;;11.60;69.90;;;;;;5010292;28;20829;-78
2022/04/22 07:29:17;;;;;;;27.20;17.90;;;11.60;70.00;;;;;;5006875;28;20491;-78
2022/04/22 07:31:45;;;;;;;25.13;18.53;;;11.70;70.00;;;;;;5006912;28;21008;-76
2022/04/22 07:34:14;;;;;;;25.00;17.83;;;11.80;70.00;;;;;;5007201;28;20574;-75
2022/04/22 07:36:43;;;;;;;27.47;19.50;;;11.90;70.10;;;;;;5004743;28;20463;-76
2022/04/22 07:39:12;;;;;;;28.97;18.90;;;11.90;70.00;;;;;;5007200;28;20511;-77
2022/04/22 07:41:41;;;;;;;31.07;21.70;;;12.00;69.80;;;;;;5007477;28;20495;-76
2022/04/22 07:47:08;;;;;;;22.20;16.63;;;12.10;69.70;;;;;;4996622;28;20497;-76
2022/04/22 07:49:36;;;;;;;25.00;16.10;;;12.10;69.80;;;;;;5011815;28;20538;-76
2022/04/22 07:52:04;;;;;;;27.40;18.73;;;12.20;69.70;;;;;;5001756;28;20473;-76
2022/04/22 07:54:32;;;;;;;22.17;16.23;;;12.30;69.50;;;;;;5004162;28;20489;-76
2022/04/22 07:57:00;;;;;;;23.47;17.30;;;12.30;69.40;;;;;;5005852;28;20466;-76
2022/04/22 07:59:30;;;;;;;22.67;16.97;;;12.30;69.40;;;;;;5005713;28;20469;-76
2022/04/22 08:01:59;;;;;;;24.63;17.47;;;12.40;69.30;;;;;;5008977;28;20539;-77
2022/04/22 08:04:28;;;;;;;25.37;16.87;;;12.40;69.10;;;;;;5011794;28;20491;-76
2022/04/22 08:06:56;;;;;;;26.13;18.67;;;12.40;68.90;;;;;;5008011;28;20465;-75
2022/04/22 08:09:45;;;;;;;22.20;16.87;;;12.40;68.90;;;;;;5006504;28;20468;-76
2022/04/22 08:12:14;;;;;;;25.87;16.40;;;12.50;69.10;;;;;;5014608;28;20460;-75
2022/04/22 08:14:42;;;;;;;27.60;18.90;;;12.60;68.70;;;;;;5009535;28;20520;-77
2022/04/22 08:17:12;;;;;;;21.97;15.53;;;12.60;68.60;;;;;;5005794;28;22785;-78
2022/04/22 08:19:43;;;;;;;21.10;15.17;;;12.70;68.80;;;;;;5012412;28;20465;-77
2022/04/22 08:22:11;;;;;;;22.07;16.90;;;12.70;68.50;;;;;;5007401;28;20475;-76
2022/04/22 08:24:39;;;;;;;22.83;16.70;;;12.80;68.60;;;;;;5012833;28;20856;-76
2022/04/22 08:27:08;;;;;;;24.43;17.87;;;12.90;68.40;;;;;;5012247;28;20455;-76
2022/04/22 08:29:37;;;;;;;23.40;17.80;;;12.90;68.40;;;;;;5014768;28;20454;-76
2022/04/22 08:32:06;;;;;;;29.30;18.80;;;13.00;68.20;;;;;;5019757;28;20560;-76
2022/04/22 08:34:35;;;;;;;27.90;18.60;;;13.10;67.90;;;;;;5008983;28;20981;-76
2022/04/22 08:37:03;;;;;;;27.70;18.43;;;13.10;67.80;;;;;;5006476;28;20511;-77
2022/04/22 08:39:31;;;;;;;22.50;17.20;;;13.10;67.80;;;;;;5005262;28;20445;-78
2022/04/22 08:42:02;;;;;;;25.83;16.80;;;13.20;67.70;;;;;;5014042;28;21037;-75
2022/04/22 08:44:50;;;;;;;23.67;17.23;;;13.20;67.30;;;;;;5006528;28;20464;-76
2022/04/22 08:50:13;;;;;;;26.03;17.70;;;13.30;67.10;;;;;;5005785;28;20476;-75
2022/04/22 08:52:43;;;;;;;22.67;16.30;;;13.40;66.80;;;;;;5021769;28;20449;-74
2022/04/22 08:55:13;;;;;;;22.60;17.33;;;13.40;66.80;;;;;;5013360;28;20479;-75
2022/04/22 08:57:42;;;;;;;24.07;16.87;;;13.40;67.10;;;;;;5009006;28;20452;-76
2022/04/22 09:00:11;;;;;;;22.50;17.20;;;13.50;66.90;;;;;;5000545;28;20456;-75
2022/04/22 09:02:39;;;;;;;30.40;19.00;;;13.50;66.80;;;;;;5009451;28;20459;-75
2022/04/22 09:05:09;;;;;;;23.07;17.40;;;13.60;66.50;;;;;;5009553;28;20468;-76
2022/04/22 09:07:41;;;;;;;27.13;17.20;;;13.70;66.50;;;;;;5007993;28;20804;-76
2022/04/22 09:10:10;;;;;;;21.37;16.50;;;13.80;66.30;;;;;;5007565;28;20851;-76
2022/04/22 09:12:38;;;;;;;22.57;16.30;;;13.80;66.20;;;;;;5010197;28;20453;-73
2022/04/22 09:15:08;;;;;;;21.60;16.00;;;13.90;66.20;;;;;;5009173;28;20477;-74
2022/04/22 09:17:39;;;;;;;22.60;15.70;;;14.00;65.90;;;;;;5009864;28;20467;-75
2022/04/22 09:20:13;;;;;;;23.23;15.50;;;14.10;65.60;;;;;;5007887;28;20452;-74
2022/04/22 09:22:44;;;;;;;22.87;17.13;;;14.10;65.60;;;;;;5010083;28;20452;-76
2022/04/22 09:25:12;;;;;;;22.50;15.47;;;14.10;65.30;;;;;;5010341;28;20479;-74
2022/04/22 09:27:48;;;;;;;24.33;16.40;;;14.20;65.20;;;;;;5004728;28;20456;-74
2022/04/22 09:30:16;;;;;;;25.17;16.43;;;14.30;65.20;;;;;;5016824;28;20454;-75
2022/04/22 09:32:45;;;;;;;22.77;14.80;;;14.30;64.70;;;;;;5010249;28;20497;-75
2022/04/22 09:35:16;;;;;;;23.43;16.77;;;14.40;64.80;;;;;;5013609;28;20971;-74
2022/04/22 09:43:33;;;;;;;24.10;17.30;;;14.60;64.60;;;;;;4998335;28;20462;-77
2022/04/22 09:46:02;;;;;;;24.80;14.20;;;14.70;64.30;;;;;;4998993;28;21107;-75
2022/04/22 09:48:42;;;;;;;20.33;13.90;;;14.80;64.00;;;;;;5005637;28;20482;-75
2022/04/22 09:51:23;;;;;;;20.90;15.00;;;14.90;63.70;;;;;;5000016;28;20465;-74
2022/04/22 09:54:00;;;;;;;17.90;13.67;;;14.90;63.40;;;;;;5001042;28;20504;-75
2022/04/22 09:56:28;;;;;;;20.70;14.60;;;15.00;63.10;;;;;;5002985;28;20487;-77
2022/04/22 09:58:57;;;;;;;21.33;15.20;;;15.00;62.90;;;;;;4992584;28;20454;-77
2022/04/22 10:01:25;;;;;;;19.60;15.00;;;15.00;62.90;;;;;;4997601;28;20490;-75
2022/04/22 10:04:14;;;;;;;19.50;14.50;;;15.00;62.50;;;;;;5002881;28;20516;-76
2022/04/22 10:06:45;;;;;;;18.20;13.97;;;15.10;62.70;;;;;;5002980;28;20586;-74
2022/04/22 10:09:15;;;;;;;20.87;14.53;;;15.10;62.80;;;;;;5013484;28;20448;-75
2022/04/22 10:11:44;;;;;;;21.40;14.80;;;15.20;62.70;;;;;;5008250;28;20837;-76
2022/04/22 10:14:12;;;;;;;20.07;15.53;;;15.30;62.60;;;;;;5005001;28;20660;-74
2022/04/22 10:16:40;;;;;;;19.33;15.03;;;15.40;62.40;;;;;;5006422;28;21036;-74
2022/04/22 10:19:10;;;;;;;21.63;14.80;;;15.50;62.20;;;;;;5007917;28;20449;-74
2022/04/22 10:21:40;;;;;;;17.63;13.40;;;15.50;61.80;;;;;;5003232;28;20449;-74
2022/04/22 10:24:12;;;;;;;17.40;13.60;;;15.60;61.30;;;;;;5007456;28;20472;-75
2022/04/22 10:26:39;;;;;;;20.80;14.40;;;15.60;61.20;;;;;;5004550;28;20489;-74
2022/04/22 10:29:09;;;;;;;19.73;13.97;;;15.60;60.90;;;;;;5000194;28;20982;-75
2022/04/22 10:31:39;;;;;;;16.40;12.40;;;15.70;61.00;;;;;;4998981;28;21067;-75
2022/04/22 10:34:08;;;;;;;18.80;13.13;;;15.70;61.10;;;;;;5012566;28;20523;-78
2022/04/22 10:36:38;;;;;;;41.17;20.30;;;15.80;61.10;;;;;;5001907;28;20535;-75
2022/04/22 10:39:06;;;;;;;16.93;13.60;;;15.80;61.20;;;;;;4998294;28;20488;-77
2022/04/22 10:41:46;;;;;;;15.90;13.40;;;15.90;60.90;;;;;;5006562;28;20463;-75
2022/04/22 10:47:15;;;;;;;33.50;20.20;;;16.10;60.60;;;;;;4997930;28;20476;-76
2022/04/22 10:49:44;;;;;;;25.63;17.27;;;16.10;60.50;;;;;;4996599;28;20472;-75
2022/04/22 10:52:14;;;;;;;22.03;15.53;;;16.10;60.20;;;;;;5003028;28;20870;-75
2022/04/22 10:55:07;;;;;;;19.17;14.37;;;16.10;59.70;;;;;;4997817;28;20527;-75
2022/04/22 10:57:39;;;;;;;28.00;18.33;;;16.10;60.00;;;;;;4994368;28;21273;-75
2022/04/22 11:00:29;;;;;;;19.97;15.70;;;16.20;60.00;;;;;;4996271;28;20568;-74
2022/04/22 11:03:12;;;;;;;16.63;12.80;;;16.20;59.90;;;;;;4998683;28;20464;-75
2022/04/22 11:05:48;;;;;;;15.77;12.60;;;16.20;59.90;;;;;;4996478;28;20488;-76
2022/04/22 11:08:25;;;;;;;13.43;10.80;;;16.30;59.80;;;;;;5001340;28;20493;-76
2022/04/22 11:11:22;;;;;;;28.43;17.90;;;16.40;59.90;;;;;;4996024;28;20469;-76
2022/04/22 11:13:52;;;;;;;15.73;12.30;;;16.40;59.80;;;;;;4981632;28;20584;-76
2022/04/22 11:16:29;;;;;;;23.63;14.70;;;16.50;59.70;;;;;;4996811;28;20512;-77
2022/04/22 11:19:36;;;;;;;16.80;11.63;;;16.60;59.40;;;;;;4997176;28;20465;-76
2022/04/22 11:22:07;;;;;;;16.90;13.40;;;16.70;59.70;;;;;;4996197;28;20989;-77
2022/04/22 11:24:36;;;;;;;15.97;12.30;;;16.70;59.30;;;;;;4997529;28;21446;-76
2022/04/22 11:27:11;;;;;;;17.40;12.40;;;16.80;59.20;;;;;;4998905;28;20445;-75
2022/04/22 11:29:41;;;;;;;15.63;11.53;;;16.80;59.00;;;;;;4996403;28;20457;-75
2022/04/22 11:32:17;;;;;;;18.00;13.80;;;16.80;59.00;;;;;;4997945;28;21002;-75
2022/04/22 11:35:14;;;;;;;19.43;13.50;;;16.90;58.80;;;;;;4996477;28;20477;-74
2022/04/22 11:37:42;;;;;;;18.30;13.83;;;16.90;58.70;;;;;;4994849;28;20472;-75
2022/04/22 11:40:18;;;;;;;16.67;11.97;;;16.90;58.50;;;;;;4999209;28;20466;-75
2022/04/22 11:42:46;;;;;;;17.93;12.70;;;17.00;58.30;;;;;;5001727;28;20457;-74
2022/04/22 11:45:16;;;;;;;16.07;11.60;;;17.00;58.30;;;;;;4996393;28;21254;-75
2022/04/22 11:47:44;;;;;;;17.00;13.20;;;17.10;58.30;;;;;;4992514;28;20464;-75
2022/04/22 11:50:19;;;;;;;18.40;12.90;;;17.10;58.10;;;;;;4995524;28;21015;-76
2022/04/22 11:52:53;;;;;;;17.50;11.13;;;17.10;57.80;;;;;;4998583;28;21019;-75
2022/04/22 11:55:22;;;;;;;17.50;13.83;;;17.10;57.60;;;;;;4999214;28;20495;-75
2022/04/22 11:57:50;;;;;;;13.40;10.87;;;17.10;57.60;;;;;;4992338;28;20946;-75
2022/04/22 12:06:00;;;;;;;15.83;10.53;;;17.20;57.80;;;;;;4997395;28;20445;-76
2022/04/22 12:08:28;;;;;;;15.60;11.60;;;17.30;57.70;;;;;;4995354;28;20472;-73
2022/04/22 12:10:56;;;;;;;15.37;11.20;;;17.40;57.20;;;;;;4996186;28;20794;-74
2022/04/22 12:13:25;;;;;;;16.10;11.97;;;17.50;57.10;;;;;;5000967;28;20984;-74
2022/04/22 12:15:55;;;;;;;17.40;11.63;;;17.50;57.00;;;;;;4993901;28;20497;-73
2022/04/22 12:18:32;;;;;;;15.37;11.20;;;17.50;56.80;;;;;;4996962;28;20465;-76
2022/04/22 12:21:01;;;;;;;15.27;11.13;;;17.50;56.70;;;;;;4994354;28;20546;-77
2022/04/22 12:23:36;;;;;;;13.73;10.50;;;17.60;56.70;;;;;;4990730;28;20473;-76
2022/04/22 12:26:05;;;;;;;13.70;10.37;;;17.60;56.40;;;;;;4993639;28;20482;-76
2022/04/22 12:28:33;;;;;;;15.13;11.40;;;17.60;56.30;;;;;;4994688;28;20843;-76
2022/04/22 12:31:03;;;;;;;19.03;10.83;;;17.60;56.10;;;;;;4995575;28;20501;-76
2022/04/22 12:33:32;;;;;;;15.90;9.80;;;17.60;56.00;;;;;;4992153;28;20464;-75
2022/04/22 12:36:07;;;;;;;13.57;10.00;;;17.70;56.20;;;;;;4992266;28;20555;-77
2022/04/22 12:38:36;;;;;;;21.50;9.73;;;17.70;55.90;;;;;;4994196;28;20460;-75
2022/04/22 12:41:17;;;;;;;12.63;9.70;;;17.80;55.60;;;;;;4999994;28;20496;-75
2022/04/22 12:43:48;;;;;;;13.20;10.10;;;17.80;55.50;;;;;;4995783;28;20457;-75
2022/04/22 12:52:14;;;;;;;12.87;8.47;;;17.90;54.80;;;;;;4996846;28;20589;-76
2022/04/22 12:54:45;;;;;;;10.63;8.30;;;17.90;54.90;;;;;;4992768;28;21574;-75
2022/04/22 12:57:19;;;;;;;14.27;9.20;;;18.00;54.80;;;;;;4987285;28;20493;-77
2022/04/22 12:59:49;;;;;;;13.13;8.23;;;18.00;54.70;;;;;;4994718;28;20479;-77
2022/04/22 13:02:19;;;;;;;13.57;9.77;;;18.10;54.60;;;;;;4994737;28;20508;-76
2022/04/22 13:04:56;;;;;;;13.80;9.50;;;18.10;54.50;;;;;;4997877;28;21485;-76
2022/04/22 13:07:24;;;;;;;17.23;8.53;;;18.10;54.20;;;;;;4998851;28;22708;-76
2022/04/22 13:09:53;;;;;;;15.83;8.17;;;18.10;54.50;;;;;;4997940;28;20465;-75
2022/04/22 13:12:21;;;;;;;11.73;8.43;;;18.10;54.50;;;;;;4998376;28;20545;-76
2022/04/22 13:14:49;;;;;;;11.33;8.57;;;18.10;54.40;;;;;;4996057;28;20493;-76
2022/04/22 13:17:28;;;;;;;12.30;8.57;;;18.10;54.10;;;;;;4997057;28;20485;-76
2022/04/22 13:19:56;;;;;;;10.57;8.10;;;18.20;54.10;;;;;;4998830;28;20465;-76
2022/04/22 13:22:23;;;;;;;12.13;8.47;;;18.10;53.80;;;;;;4996378;28;20451;-75
2022/04/22 13:24:51;;;;;;;11.17;7.83;;;18.10;53.80;;;;;;4998656;28;20950;-76
2022/04/22 13:27:19;;;;;;;13.20;8.40;;;18.10;54.10;;;;;;5000547;28;20523;-75
2022/04/22 13:29:47;;;;;;;10.90;7.50;;;18.10;54.20;;;;;;5004693;28;20484;-75
2022/04/22 13:32:15;;;;;;;11.30;8.23;;;18.20;54.30;;;;;;4994320;28;20489;-75
2022/04/22 13:34:45;;;;;;;13.37;9.00;;;18.20;54.20;;;;;;4994500;28;20493;-75
2022/04/22 13:37:13;;;;;;;18.70;9.57;;;18.20;54.10;;;;;;4999431;28;20480;-75
2022/04/22 13:39:42;;;;;;;13.80;9.47;;;18.20;54.10;;;;;;4997624;28;20491;-75
2022/04/22 13:42:10;;;;;;;13.03;9.60;;;18.20;53.80;;;;;;4995244;28;20473;-77